sensor_id;sensor_type;location;lat;lon;timestamp;P1;durP1;ratioP1;P2;durP2;ratioP2
15603;SDS011;7902;49.042;9.092;2022-12-24T00:02:00;26.70;;;2.03;;
15603;SDS011;7902;49.042;9.092;2022-12-24T00:04:26;18.60;;;2.37;;
15603;SDS011;7902;49.042;9.092;2022-12-24T00:06:52;20.03;;;2.30;;
15603;SDS011;7902;49.042;9.092;2022-12-24T00:09:18;18.80;;;2.13;;
15603;SDS011;7902;49.042;9.092;2022-12-24T00:11:44;18.33;;;2.77;;
15603;SDS011;7902;49.042;9.092;2022-12-24T00:14:10;14.20;;;2.10;;
15603;SDS011;7902;49.042;9.092;2022-12-24T00:16:36;12.43;;;1.90;;
15603;SDS011;7902;49.042;9.092;2022-12-24T00:19:02;13.40;;;2.10;;
15603;SDS011;7902;49.042;9.092;2022-12-24T00:21:28;20.33;;;2.53;;
15603;SDS011;7902;49.042;9.092;2022-12-24T00:23:53;12.17;;;1.90;;
15603;SDS011;7902;49.042;9.092;2022-12-24T00:26:19;15.27;;;3.20;;
15603;SDS011;7902;49.042;9.092;2022-12-24T00:28:45;16.87;;;2.13;;
15603;SDS011;7902;49.042;9.092;2022-12-24T00:31:15;22.33;;;2.60;;
15603;SDS011;7902;49.042;9.092;2022-12-24T00:33:42;12.50;;;1.70;;
15603;SDS011;7902;49.042;9.092;2022-12-24T00:36:10;16.97;;;1.67;;
15603;SDS011;7902;49.042;9.092;2022-12-24T00:38:36;14.90;;;1.80;;
15603;SDS011;7902;49.042;9.092;2022-12-24T00:41:03;14.03;;;2.00;;
15603;SDS011;7902;49.042;9.092;2022-12-24T00:43:30;12.53;;;2.27;;
15603;SDS011;7902;49.042;9.092;2022-12-24T00:45:58;18.07;;;2.00;;
15603;SDS011;7902;49.042;9.092;2022-12-24T00:48:24;17.70;;;1.93;;
15603;SDS011;7902;49.042;9.092;2022-12-24T00:50:50;16.23;;;2.10;;
15603;SDS011;7902;49.042;9.092;2022-12-24T00:53:16;21.00;;;3.13;;
15603;SDS011;7902;49.042;9.092;2022-12-24T00:55:43;20.40;;;2.23;;
15603;SDS011;7902;49.042;9.092;2022-12-24T00:58:09;16.20;;;1.73;;
15603;SDS011;7902;49.042;9.092;2022-12-24T01:00:35;11.30;;;1.80;;
15603;SDS011;7902;49.042;9.092;2022-12-24T01:03:01;14.23;;;1.47;;
15603;SDS011;7902;49.042;9.092;2022-12-24T01:05:26;13.03;;;2.03;;
15603;SDS011;7902;49.042;9.092;2022-12-24T01:07:52;16.10;;;2.37;;
15603;SDS011;7902;49.042;9.092;2022-12-24T01:10:19;13.80;;;1.53;;
15603;SDS011;7902;49.042;9.092;2022-12-24T01:12:45;11.23;;;1.50;;
15603;SDS011;7902;49.042;9.092;2022-12-24T01:15:12;16.00;;;1.77;;
15603;SDS011;7902;49.042;9.092;2022-12-24T01:17:39;12.77;;;1.50;;
15603;SDS011;7902;49.042;9.092;2022-12-24T01:20:06;18.33;;;2.30;;
15603;SDS011;7902;49.042;9.092;2022-12-24T01:22:34;15.20;;;1.70;;
15603;SDS011;7902;49.042;9.092;2022-12-24T01:25:00;16.03;;;1.70;;
15603;SDS011;7902;49.042;9.092;2022-12-24T01:27:26;13.00;;;1.60;;
15603;SDS011;7902;49.042;9.092;2022-12-24T01:29:52;13.30;;;1.47;;
15603;SDS011;7902;49.042;9.092;2022-12-24T01:32:18;14.27;;;1.63;;
15603;SDS011;7902;49.042;9.092;2022-12-24T01:34:44;16.47;;;2.33;;
15603;SDS011;7902;49.042;9.092;2022-12-24T01:37:10;19.10;;;1.30;;
15603;SDS011;7902;49.042;9.092;2022-12-24T01:39:35;18.37;;;2.20;;
15603;SDS011;7902;49.042;9.092;2022-12-24T01:42:01;19.27;;;2.13;;
15603;SDS011;7902;49.042;9.092;2022-12-24T01:48:18;14.87;;;1.77;;
15603;SDS011;7902;49.042;9.092;2022-12-24T01:50:58;15.47;;;2.10;;
15603;SDS011;7902;49.042;9.092;2022-12-24T01:53:31;23.30;;;4.83;;
15603;SDS011;7902;49.042;9.092;2022-12-24T01:56:00;16.60;;;3.30;;
15603;SDS011;7902;49.042;9.092;2022-12-24T01:58:26;13.53;;;2.43;;
15603;SDS011;7902;49.042;9.092;2022-12-24T02:00:52;19.67;;;3.83;;
15603;SDS011;7902;49.042;9.092;2022-12-24T02:03:18;21.20;;;2.07;;
15603;SDS011;7902;49.042;9.092;2022-12-24T02:05:46;24.90;;;2.67;;
15603;SDS011;7902;49.042;9.092;2022-12-24T02:08:14;17.77;;;1.93;;
15603;SDS011;7902;49.042;9.092;2022-12-24T02:10:42;19.83;;;2.37;;
15603;SDS011;7902;49.042;9.092;2022-12-24T02:13:09;25.40;;;2.70;;
15603;SDS011;7902;49.042;9.092;2022-12-24T02:15:47;25.13;;;2.60;;
15603;SDS011;7902;49.042;9.092;2022-12-24T02:26:54;16.30;;;1.90;;
15603;SDS011;7902;49.042;9.092;2022-12-24T02:32:34;21.53;;;3.17;;
15603;SDS011;7902;49.042;9.092;2022-12-24T02:35:19;22.00;;;2.30;;
15603;SDS011;7902;49.042;9.092;2022-12-24T02:43:26;17.80;;;2.73;;
15603;SDS011;7902;49.042;9.092;2022-12-24T02:45:58;23.83;;;2.83;;
15603;SDS011;7902;49.042;9.092;2022-12-24T02:48:26;26.23;;;2.73;;
15603;SDS011;7902;49.042;9.092;2022-12-24T02:50:55;18.73;;;2.33;;
15603;SDS011;7902;49.042;9.092;2022-12-24T02:53:32;22.80;;;2.60;;
15603;SDS011;7902;49.042;9.092;2022-12-24T02:58:41;18.07;;;2.17;;
15603;SDS011;7902;49.042;9.092;2022-12-24T03:04:25;16.80;;;2.43;;
15603;SDS011;7902;49.042;9.092;2022-12-24T03:07:09;28.77;;;3.27;;
15603;SDS011;7902;49.042;9.092;2022-12-24T03:09:54;21.60;;;2.70;;
15603;SDS011;7902;49.042;9.092;2022-12-24T03:12:38;20.90;;;1.90;;
15603;SDS011;7902;49.042;9.092;2022-12-24T03:15:08;23.53;;;2.90;;
15603;SDS011;7902;49.042;9.092;2022-12-24T03:17:37;29.37;;;3.07;;
15603;SDS011;7902;49.042;9.092;2022-12-24T03:20:05;26.80;;;3.70;;
15603;SDS011;7902;49.042;9.092;2022-12-24T03:22:34;19.10;;;1.93;;
15603;SDS011;7902;49.042;9.092;2022-12-24T03:25:01;26.93;;;2.93;;
15603;SDS011;7902;49.042;9.092;2022-12-24T03:27:28;22.50;;;2.90;;
15603;SDS011;7902;49.042;9.092;2022-12-24T03:29:57;24.30;;;3.50;;
15603;SDS011;7902;49.042;9.092;2022-12-24T03:32:24;20.87;;;2.33;;
15603;SDS011;7902;49.042;9.092;2022-12-24T03:34:52;26.60;;;2.40;;
15603;SDS011;7902;49.042;9.092;2022-12-24T03:37:19;22.70;;;2.70;;
15603;SDS011;7902;49.042;9.092;2022-12-24T03:39:45;27.37;;;2.50;;
15603;SDS011;7902;49.042;9.092;2022-12-24T03:42:11;37.40;;;4.30;;
15603;SDS011;7902;49.042;9.092;2022-12-24T03:44:37;21.27;;;3.17;;
15603;SDS011;7902;49.042;9.092;2022-12-24T03:47:03;23.50;;;2.77;;
15603;SDS011;7902;49.042;9.092;2022-12-24T03:49:29;22.63;;;2.57;;
15603;SDS011;7902;49.042;9.092;2022-12-24T03:51:55;23.33;;;3.10;;
15603;SDS011;7902;49.042;9.092;2022-12-24T03:54:21;22.13;;;3.00;;
15603;SDS011;7902;49.042;9.092;2022-12-24T03:56:47;24.80;;;2.77;;
15603;SDS011;7902;49.042;9.092;2022-12-24T03:59:13;18.80;;;2.43;;
15603;SDS011;7902;49.042;9.092;2022-12-24T04:01:39;26.97;;;3.17;;
15603;SDS011;7902;49.042;9.092;2022-12-24T04:04:05;32.27;;;2.73;;
15603;SDS011;7902;49.042;9.092;2022-12-24T04:06:30;18.30;;;2.30;;
15603;SDS011;7902;49.042;9.092;2022-12-24T04:08:56;26.70;;;3.57;;
15603;SDS011;7902;49.042;9.092;2022-12-24T04:11:26;22.80;;;3.10;;
15603;SDS011;7902;49.042;9.092;2022-12-24T04:13:52;23.50;;;3.43;;
15603;SDS011;7902;49.042;9.092;2022-12-24T04:16:18;28.23;;;3.77;;
15603;SDS011;7902;49.042;9.092;2022-12-24T04:18:43;19.13;;;2.83;;
15603;SDS011;7902;49.042;9.092;2022-12-24T04:21:10;27.83;;;2.93;;
15603;SDS011;7902;49.042;9.092;2022-12-24T04:23:36;26.17;;;3.03;;
15603;SDS011;7902;49.042;9.092;2022-12-24T04:26:04;28.50;;;3.93;;
15603;SDS011;7902;49.042;9.092;2022-12-24T04:28:31;30.20;;;3.80;;
15603;SDS011;7902;49.042;9.092;2022-12-24T04:31:02;20.30;;;3.00;;
15603;SDS011;7902;49.042;9.092;2022-12-24T04:33:30;21.43;;;3.03;;
15603;SDS011;7902;49.042;9.092;2022-12-24T04:35:56;23.83;;;3.30;;
15603;SDS011;7902;49.042;9.092;2022-12-24T04:38:23;29.20;;;2.93;;
15603;SDS011;7902;49.042;9.092;2022-12-24T04:40:56;30.63;;;3.63;;
15603;SDS011;7902;49.042;9.092;2022-12-24T04:43:33;24.40;;;2.77;;
15603;SDS011;7902;49.042;9.092;2022-12-24T04:46:06;29.17;;;3.40;;
15603;SDS011;7902;49.042;9.092;2022-12-24T04:48:39;27.67;;;2.90;;
15603;SDS011;7902;49.042;9.092;2022-12-24T04:51:06;41.67;;;3.10;;
15603;SDS011;7902;49.042;9.092;2022-12-24T04:53:33;24.00;;;2.70;;
15603;SDS011;7902;49.042;9.092;2022-12-24T04:56:00;23.53;;;3.20;;
15603;SDS011;7902;49.042;9.092;2022-12-24T04:58:27;22.90;;;3.13;;
15603;SDS011;7902;49.042;9.092;2022-12-24T05:00:53;34.17;;;3.30;;
15603;SDS011;7902;49.042;9.092;2022-12-24T05:03:19;28.57;;;2.80;;
15603;SDS011;7902;49.042;9.092;2022-12-24T05:05:46;18.70;;;2.67;;
15603;SDS011;7902;49.042;9.092;2022-12-24T05:08:12;31.90;;;2.60;;
15603;SDS011;7902;49.042;9.092;2022-12-24T05:10:38;22.07;;;2.90;;
15603;SDS011;7902;49.042;9.092;2022-12-24T05:13:04;35.50;;;3.37;;
15603;SDS011;7902;49.042;9.092;2022-12-24T05:15:30;34.53;;;6.13;;
15603;SDS011;7902;49.042;9.092;2022-12-24T05:17:56;34.43;;;6.17;;
15603;SDS011;7902;49.042;9.092;2022-12-24T05:20:23;23.90;;;4.60;;
15603;SDS011;7902;49.042;9.092;2022-12-24T05:22:49;32.57;;;3.50;;
15603;SDS011;7902;49.042;9.092;2022-12-24T05:25:35;26.03;;;2.60;;
15603;SDS011;7902;49.042;9.092;2022-12-24T05:28:22;29.37;;;3.00;;
15603;SDS011;7902;49.042;9.092;2022-12-24T05:30:49;15.27;;;2.30;;
15603;SDS011;7902;49.042;9.092;2022-12-24T05:33:15;24.57;;;2.90;;
15603;SDS011;7902;49.042;9.092;2022-12-24T05:35:41;18.80;;;3.10;;
15603;SDS011;7902;49.042;9.092;2022-12-24T05:38:07;20.07;;;2.50;;
15603;SDS011;7902;49.042;9.092;2022-12-24T05:40:33;19.50;;;3.70;;
15603;SDS011;7902;49.042;9.092;2022-12-24T05:42:59;23.10;;;4.40;;
15603;SDS011;7902;49.042;9.092;2022-12-24T05:45:25;25.57;;;4.30;;
15603;SDS011;7902;49.042;9.092;2022-12-24T05:47:51;24.37;;;3.20;;
15603;SDS011;7902;49.042;9.092;2022-12-24T05:50:16;18.93;;;3.70;;
15603;SDS011;7902;49.042;9.092;2022-12-24T05:52:42;23.30;;;4.00;;
15603;SDS011;7902;49.042;9.092;2022-12-24T05:55:08;28.10;;;3.40;;
15603;SDS011;7902;49.042;9.092;2022-12-24T05:57:34;22.53;;;3.57;;
15603;SDS011;7902;49.042;9.092;2022-12-24T06:00:00;27.60;;;3.07;;
15603;SDS011;7902;49.042;9.092;2022-12-24T06:02:26;25.17;;;4.17;;
15603;SDS011;7902;49.042;9.092;2022-12-24T06:04:52;26.97;;;4.67;;
15603;SDS011;7902;49.042;9.092;2022-12-24T06:07:18;36.40;;;5.40;;
15603;SDS011;7902;49.042;9.092;2022-12-24T06:09:44;39.27;;;6.30;;
15603;SDS011;7902;49.042;9.092;2022-12-24T06:12:10;27.43;;;6.70;;
15603;SDS011;7902;49.042;9.092;2022-12-24T06:14:36;31.93;;;6.17;;
15603;SDS011;7902;49.042;9.092;2022-12-24T06:17:01;25.40;;;3.67;;
15603;SDS011;7902;49.042;9.092;2022-12-24T06:19:27;24.73;;;3.50;;
15603;SDS011;7902;49.042;9.092;2022-12-24T06:21:53;25.07;;;3.50;;
15603;SDS011;7902;49.042;9.092;2022-12-24T06:24:19;29.73;;;4.70;;
15603;SDS011;7902;49.042;9.092;2022-12-24T06:26:45;37.87;;;4.47;;
15603;SDS011;7902;49.042;9.092;2022-12-24T06:29:11;30.10;;;3.43;;
15603;SDS011;7902;49.042;9.092;2022-12-24T06:31:37;24.77;;;3.17;;
15603;SDS011;7902;49.042;9.092;2022-12-24T06:34:03;26.53;;;2.90;;
15603;SDS011;7902;49.042;9.092;2022-12-24T06:36:28;25.40;;;3.10;;
15603;SDS011;7902;49.042;9.092;2022-12-24T06:38:55;20.00;;;2.90;;
15603;SDS011;7902;49.042;9.092;2022-12-24T06:41:21;23.80;;;3.10;;
15603;SDS011;7902;49.042;9.092;2022-12-24T06:43:49;24.53;;;3.67;;
15603;SDS011;7902;49.042;9.092;2022-12-24T06:46:16;29.40;;;3.60;;
15603;SDS011;7902;49.042;9.092;2022-12-24T06:48:43;28.93;;;3.63;;
15603;SDS011;7902;49.042;9.092;2022-12-24T06:51:10;29.30;;;5.57;;
15603;SDS011;7902;49.042;9.092;2022-12-24T06:53:37;26.10;;;3.10;;
15603;SDS011;7902;49.042;9.092;2022-12-24T06:56:03;26.23;;;2.60;;
15603;SDS011;7902;49.042;9.092;2022-12-24T06:58:32;15.73;;;2.40;;
15603;SDS011;7902;49.042;9.092;2022-12-24T07:01:05;27.70;;;3.60;;
15603;SDS011;7902;49.042;9.092;2022-12-24T07:03:33;29.10;;;4.23;;
15603;SDS011;7902;49.042;9.092;2022-12-24T07:05:59;29.97;;;3.30;;
15603;SDS011;7902;49.042;9.092;2022-12-24T07:08:25;19.67;;;2.87;;
15603;SDS011;7902;49.042;9.092;2022-12-24T07:10:51;23.97;;;3.67;;
15603;SDS011;7902;49.042;9.092;2022-12-24T07:13:18;24.10;;;4.30;;
15603;SDS011;7902;49.042;9.092;2022-12-24T07:15:44;27.40;;;3.97;;
15603;SDS011;7902;49.042;9.092;2022-12-24T07:18:10;34.13;;;4.00;;
15603;SDS011;7902;49.042;9.092;2022-12-24T07:20:37;25.77;;;3.77;;
15603;SDS011;7902;49.042;9.092;2022-12-24T07:23:03;29.23;;;3.10;;
15603;SDS011;7902;49.042;9.092;2022-12-24T07:25:29;27.53;;;3.53;;
15603;SDS011;7902;49.042;9.092;2022-12-24T07:27:55;27.17;;;3.70;;
15603;SDS011;7902;49.042;9.092;2022-12-24T07:30:21;22.57;;;3.50;;
15603;SDS011;7902;49.042;9.092;2022-12-24T07:32:47;21.50;;;3.20;;
15603;SDS011;7902;49.042;9.092;2022-12-24T07:35:13;25.03;;;3.03;;
15603;SDS011;7902;49.042;9.092;2022-12-24T07:37:38;19.27;;;2.47;;
15603;SDS011;7902;49.042;9.092;2022-12-24T07:40:04;21.90;;;3.73;;
15603;SDS011;7902;49.042;9.092;2022-12-24T07:42:32;27.23;;;3.60;;
15603;SDS011;7902;49.042;9.092;2022-12-24T07:44:58;38.60;;;4.23;;
15603;SDS011;7902;49.042;9.092;2022-12-24T07:47:24;20.03;;;2.63;;
15603;SDS011;7902;49.042;9.092;2022-12-24T07:49:50;28.10;;;3.60;;
15603;SDS011;7902;49.042;9.092;2022-12-24T07:52:16;23.43;;;3.80;;
15603;SDS011;7902;49.042;9.092;2022-12-24T07:54:42;29.07;;;4.07;;
15603;SDS011;7902;49.042;9.092;2022-12-24T07:57:07;23.23;;;4.20;;
15603;SDS011;7902;49.042;9.092;2022-12-24T07:59:33;26.53;;;4.93;;
15603;SDS011;7902;49.042;9.092;2022-12-24T08:01:59;30.17;;;4.20;;
15603;SDS011;7902;49.042;9.092;2022-12-24T08:04:25;27.47;;;3.80;;
15603;SDS011;7902;49.042;9.092;2022-12-24T08:06:51;31.80;;;4.60;;
15603;SDS011;7902;49.042;9.092;2022-12-24T08:09:17;26.93;;;3.30;;
15603;SDS011;7902;49.042;9.092;2022-12-24T08:11:43;19.40;;;2.90;;
15603;SDS011;7902;49.042;9.092;2022-12-24T08:14:09;30.50;;;3.10;;
15603;SDS011;7902;49.042;9.092;2022-12-24T08:16:35;26.63;;;3.50;;
15603;SDS011;7902;49.042;9.092;2022-12-24T08:19:01;19.33;;;2.77;;
15603;SDS011;7902;49.042;9.092;2022-12-24T08:21:27;28.53;;;3.40;;
15603;SDS011;7902;49.042;9.092;2022-12-24T08:23:53;27.00;;;3.67;;
15603;SDS011;7902;49.042;9.092;2022-12-24T08:26:19;21.93;;;3.37;;
15603;SDS011;7902;49.042;9.092;2022-12-24T08:28:45;25.90;;;3.40;;
15603;SDS011;7902;49.042;9.092;2022-12-24T08:31:10;29.37;;;3.40;;
15603;SDS011;7902;49.042;9.092;2022-12-24T08:33:36;30.50;;;3.00;;
15603;SDS011;7902;49.042;9.092;2022-12-24T08:36:02;26.43;;;3.20;;
15603;SDS011;7902;49.042;9.092;2022-12-24T08:38:28;26.80;;;3.17;;
15603;SDS011;7902;49.042;9.092;2022-12-24T08:40:54;25.70;;;3.40;;
15603;SDS011;7902;49.042;9.092;2022-12-24T08:43:21;24.37;;;3.27;;
15603;SDS011;7902;49.042;9.092;2022-12-24T08:45:48;25.50;;;3.13;;
15603;SDS011;7902;49.042;9.092;2022-12-24T08:48:14;32.47;;;4.03;;
15603;SDS011;7902;49.042;9.092;2022-12-24T08:50:40;25.73;;;3.10;;
15603;SDS011;7902;49.042;9.092;2022-12-24T08:53:07;20.57;;;3.20;;
15603;SDS011;7902;49.042;9.092;2022-12-24T08:55:34;24.73;;;3.10;;
15603;SDS011;7902;49.042;9.092;2022-12-24T08:58:00;23.70;;;3.57;;
15603;SDS011;7902;49.042;9.092;2022-12-24T09:00:26;20.63;;;2.57;;
15603;SDS011;7902;49.042;9.092;2022-12-24T09:02:52;24.10;;;2.47;;
15603;SDS011;7902;49.042;9.092;2022-12-24T09:05:18;21.37;;;3.47;;
15603;SDS011;7902;49.042;9.092;2022-12-24T09:07:44;27.93;;;3.40;;
15603;SDS011;7902;49.042;9.092;2022-12-24T09:10:10;19.73;;;2.83;;
15603;SDS011;7902;49.042;9.092;2022-12-24T09:12:36;23.00;;;3.17;;
15603;SDS011;7902;49.042;9.092;2022-12-24T09:15:03;26.70;;;3.20;;
15603;SDS011;7902;49.042;9.092;2022-12-24T09:17:32;23.37;;;3.33;;
15603;SDS011;7902;49.042;9.092;2022-12-24T09:19:59;24.60;;;3.30;;
15603;SDS011;7902;49.042;9.092;2022-12-24T09:22:25;21.57;;;2.80;;
15603;SDS011;7902;49.042;9.092;2022-12-24T09:24:54;19.73;;;2.00;;
15603;SDS011;7902;49.042;9.092;2022-12-24T09:27:20;18.53;;;3.00;;
15603;SDS011;7902;49.042;9.092;2022-12-24T09:29:46;17.17;;;2.27;;
15603;SDS011;7902;49.042;9.092;2022-12-24T09:32:12;23.10;;;3.20;;
15603;SDS011;7902;49.042;9.092;2022-12-24T09:34:38;19.67;;;2.70;;
15603;SDS011;7902;49.042;9.092;2022-12-24T09:37:04;21.73;;;3.27;;
15603;SDS011;7902;49.042;9.092;2022-12-24T09:39:30;32.20;;;2.87;;
15603;SDS011;7902;49.042;9.092;2022-12-24T09:42:04;27.93;;;3.30;;
15603;SDS011;7902;49.042;9.092;2022-12-24T09:47:08;22.03;;;3.30;;
15603;SDS011;7902;49.042;9.092;2022-12-24T09:49:42;27.40;;;5.50;;
15603;SDS011;7902;49.042;9.092;2022-12-24T09:52:14;23.47;;;4.87;;
15603;SDS011;7902;49.042;9.092;2022-12-24T09:54:55;24.60;;;3.97;;
15603;SDS011;7902;49.042;9.092;2022-12-24T09:57:35;23.37;;;3.17;;
15603;SDS011;7902;49.042;9.092;2022-12-24T10:00:15;28.10;;;2.97;;
15603;SDS011;7902;49.042;9.092;2022-12-24T10:02:45;26.73;;;3.43;;
15603;SDS011;7902;49.042;9.092;2022-12-24T10:05:14;19.30;;;3.63;;
15603;SDS011;7902;49.042;9.092;2022-12-24T10:07:53;25.30;;;3.53;;
15603;SDS011;7902;49.042;9.092;2022-12-24T10:13:25;31.97;;;3.77;;
15603;SDS011;7902;49.042;9.092;2022-12-24T10:16:11;26.40;;;3.27;;
15603;SDS011;7902;49.042;9.092;2022-12-24T10:19:04;52.60;;;2.93;;
15603;SDS011;7902;49.042;9.092;2022-12-24T10:27:42;26.07;;;3.87;;
15603;SDS011;7902;49.042;9.092;2022-12-24T10:30:17;21.50;;;3.93;;
15603;SDS011;7902;49.042;9.092;2022-12-24T10:32:49;22.70;;;3.40;;
15603;SDS011;7902;49.042;9.092;2022-12-24T10:35:18;33.43;;;4.50;;
15603;SDS011;7902;49.042;9.092;2022-12-24T10:37:46;27.70;;;4.20;;
15603;SDS011;7902;49.042;9.092;2022-12-24T10:40:23;25.50;;;2.77;;
15603;SDS011;7902;49.042;9.092;2022-12-24T10:42:54;28.67;;;5.70;;
15603;SDS011;7902;49.042;9.092;2022-12-24T10:45:20;19.90;;;3.60;;
15603;SDS011;7902;49.042;9.092;2022-12-24T10:47:49;23.37;;;4.37;;
15603;SDS011;7902;49.042;9.092;2022-12-24T10:53:14;37.47;;;7.03;;
15603;SDS011;7902;49.042;9.092;2022-12-24T10:55:46;31.20;;;3.77;;
15603;SDS011;7902;49.042;9.092;2022-12-24T10:58:14;18.90;;;4.50;;
15603;SDS011;7902;49.042;9.092;2022-12-24T11:00:48;20.83;;;3.20;;
15603;SDS011;7902;49.042;9.092;2022-12-24T11:03:34;29.80;;;9.00;;
15603;SDS011;7902;49.042;9.092;2022-12-24T11:08:26;22.07;;;4.37;;
15603;SDS011;7902;49.042;9.092;2022-12-24T11:10:53;20.80;;;2.77;;
15603;SDS011;7902;49.042;9.092;2022-12-24T11:13:30;21.50;;;2.50;;
15603;SDS011;7902;49.042;9.092;2022-12-24T11:16:00;27.27;;;4.50;;
15603;SDS011;7902;49.042;9.092;2022-12-24T11:18:28;23.87;;;3.80;;
15603;SDS011;7902;49.042;9.092;2022-12-24T11:20:56;30.10;;;4.80;;
15603;SDS011;7902;49.042;9.092;2022-12-24T11:23:25;34.57;;;4.57;;
15603;SDS011;7902;49.042;9.092;2022-12-24T11:25:52;30.17;;;4.60;;
15603;SDS011;7902;49.042;9.092;2022-12-24T11:28:21;21.70;;;3.60;;
15603;SDS011;7902;49.042;9.092;2022-12-24T11:30:59;28.23;;;4.03;;
15603;SDS011;7902;49.042;9.092;2022-12-24T11:33:47;23.30;;;3.47;;
15603;SDS011;7902;49.042;9.092;2022-12-24T11:36:16;25.47;;;3.40;;
15603;SDS011;7902;49.042;9.092;2022-12-24T11:38:55;19.53;;;3.17;;
15603;SDS011;7902;49.042;9.092;2022-12-24T11:41:22;32.90;;;4.10;;
15603;SDS011;7902;49.042;9.092;2022-12-24T11:43:51;22.40;;;3.10;;
15603;SDS011;7902;49.042;9.092;2022-12-24T11:49:04;31.03;;;4.67;;
15603;SDS011;7902;49.042;9.092;2022-12-24T11:51:30;23.53;;;3.27;;
15603;SDS011;7902;49.042;9.092;2022-12-24T11:56:52;31.20;;;4.87;;
15603;SDS011;7902;49.042;9.092;2022-12-24T11:59:26;31.50;;;4.13;;
15603;SDS011;7902;49.042;9.092;2022-12-24T12:02:01;34.27;;;5.07;;
15603;SDS011;7902;49.042;9.092;2022-12-24T12:04:58;33.80;;;4.10;;
15603;SDS011;7902;49.042;9.092;2022-12-24T12:07:29;26.60;;;3.83;;
15603;SDS011;7902;49.042;9.092;2022-12-24T12:10:00;26.80;;;3.50;;
15603;SDS011;7902;49.042;9.092;2022-12-24T12:12:29;26.47;;;4.10;;
15603;SDS011;7902;49.042;9.092;2022-12-24T12:17:59;22.70;;;3.83;;
15603;SDS011;7902;49.042;9.092;2022-12-24T12:20:34;48.43;;;4.00;;
15603;SDS011;7902;49.042;9.092;2022-12-24T12:25:51;27.00;;;3.20;;
15603;SDS011;7902;49.042;9.092;2022-12-24T12:28:22;23.87;;;3.00;;
15603;SDS011;7902;49.042;9.092;2022-12-24T12:36:56;23.73;;;2.40;;
15603;SDS011;7902;49.042;9.092;2022-12-24T12:39:29;22.70;;;3.37;;
15603;SDS011;7902;49.042;9.092;2022-12-24T12:50:07;28.40;;;3.10;;
15603;SDS011;7902;49.042;9.092;2022-12-24T12:57:47;32.60;;;4.23;;
15603;SDS011;7902;49.042;9.092;2022-12-24T13:00:16;25.00;;;3.70;;
15603;SDS011;7902;49.042;9.092;2022-12-24T13:05:35;19.27;;;3.77;;
15603;SDS011;7902;49.042;9.092;2022-12-24T13:13:39;17.67;;;3.00;;
15603;SDS011;7902;49.042;9.092;2022-12-24T13:16:19;27.57;;;4.10;;
15603;SDS011;7902;49.042;9.092;2022-12-24T13:22:01;18.00;;;3.90;;
15603;SDS011;7902;49.042;9.092;2022-12-24T13:24:28;21.07;;;2.90;;
15603;SDS011;7902;49.042;9.092;2022-12-24T13:27:05;29.30;;;3.63;;
15603;SDS011;7902;49.042;9.092;2022-12-24T13:29:50;21.10;;;3.53;;
15603;SDS011;7902;49.042;9.092;2022-12-24T13:37:32;20.30;;;3.20;;
15603;SDS011;7902;49.042;9.092;2022-12-24T13:47:55;19.73;;;2.87;;
15603;SDS011;7902;49.042;9.092;2022-12-24T13:50:35;22.87;;;2.90;;
15603;SDS011;7902;49.042;9.092;2022-12-24T13:53:04;23.23;;;3.10;;
15603;SDS011;7902;49.042;9.092;2022-12-24T13:55:50;29.43;;;3.50;;
15603;SDS011;7902;49.042;9.092;2022-12-24T13:58:20;28.60;;;4.20;;
15603;SDS011;7902;49.042;9.092;2022-12-24T14:00:53;28.53;;;3.90;;
15603;SDS011;7902;49.042;9.092;2022-12-24T14:03:32;21.07;;;3.30;;
15603;SDS011;7902;49.042;9.092;2022-12-24T14:08:57;26.57;;;3.70;;
15603;SDS011;7902;49.042;9.092;2022-12-24T14:14:28;18.57;;;3.03;;
15603;SDS011;7902;49.042;9.092;2022-12-24T14:17:00;24.47;;;2.87;;
15603;SDS011;7902;49.042;9.092;2022-12-24T14:19:29;32.77;;;4.30;;
15603;SDS011;7902;49.042;9.092;2022-12-24T14:22:19;33.87;;;4.40;;
15603;SDS011;7902;49.042;9.092;2022-12-24T14:24:54;31.27;;;4.20;;
15603;SDS011;7902;49.042;9.092;2022-12-24T14:32:36;23.20;;;4.07;;
15603;SDS011;7902;49.042;9.092;2022-12-24T14:35:10;28.30;;;4.50;;
15603;SDS011;7902;49.042;9.092;2022-12-24T14:37:44;19.43;;;3.30;;
15603;SDS011;7902;49.042;9.092;2022-12-24T14:40:16;23.97;;;4.40;;
15603;SDS011;7902;49.042;9.092;2022-12-24T14:48:10;22.40;;;4.30;;
15603;SDS011;7902;49.042;9.092;2022-12-24T14:56:08;26.03;;;4.60;;
15603;SDS011;7902;49.042;9.092;2022-12-24T14:58:39;30.80;;;5.73;;
15603;SDS011;7902;49.042;9.092;2022-12-24T15:06:31;27.67;;;4.73;;
15603;SDS011;7902;49.042;9.092;2022-12-24T15:08:58;29.00;;;4.63;;
15603;SDS011;7902;49.042;9.092;2022-12-24T15:11:25;23.93;;;4.30;;
15603;SDS011;7902;49.042;9.092;2022-12-24T15:13:52;30.30;;;5.57;;
15603;SDS011;7902;49.042;9.092;2022-12-24T15:16:33;24.30;;;6.17;;
15603;SDS011;7902;49.042;9.092;2022-12-24T15:19:05;24.63;;;4.93;;
15603;SDS011;7902;49.042;9.092;2022-12-24T15:21:41;23.03;;;5.00;;
15603;SDS011;7902;49.042;9.092;2022-12-24T15:26:57;36.60;;;7.50;;
15603;SDS011;7902;49.042;9.092;2022-12-24T15:29:28;28.73;;;7.27;;
15603;SDS011;7902;49.042;9.092;2022-12-24T15:31:56;24.03;;;5.40;;
15603;SDS011;7902;49.042;9.092;2022-12-24T15:34:27;28.47;;;4.70;;
15603;SDS011;7902;49.042;9.092;2022-12-24T15:37:11;29.07;;;4.90;;
15603;SDS011;7902;49.042;9.092;2022-12-24T15:39:42;34.97;;;6.83;;
15603;SDS011;7902;49.042;9.092;2022-12-24T15:42:10;34.50;;;5.30;;
15603;SDS011;7902;49.042;9.092;2022-12-24T15:44:46;22.17;;;4.30;;
15603;SDS011;7902;49.042;9.092;2022-12-24T15:47:24;24.60;;;4.20;;
15603;SDS011;7902;49.042;9.092;2022-12-24T15:49:52;30.67;;;7.10;;
15603;SDS011;7902;49.042;9.092;2022-12-24T15:52:19;25.33;;;8.57;;
15603;SDS011;7902;49.042;9.092;2022-12-24T15:54:48;35.63;;;7.70;;
15603;SDS011;7902;49.042;9.092;2022-12-24T15:57:31;32.17;;;8.37;;
15603;SDS011;7902;49.042;9.092;2022-12-24T15:59:58;25.33;;;6.87;;
15603;SDS011;7902;49.042;9.092;2022-12-24T16:08:01;35.23;;;7.70;;
15603;SDS011;7902;49.042;9.092;2022-12-24T16:10:40;38.70;;;9.00;;
15603;SDS011;7902;49.042;9.092;2022-12-24T16:13:30;52.40;;;17.23;;
15603;SDS011;7902;49.042;9.092;2022-12-24T16:15:58;55.67;;;15.40;;
15603;SDS011;7902;49.042;9.092;2022-12-24T16:18:27;61.07;;;16.23;;
15603;SDS011;7902;49.042;9.092;2022-12-24T16:20:57;57.00;;;16.80;;
15603;SDS011;7902;49.042;9.092;2022-12-24T16:23:24;35.13;;;10.37;;
15603;SDS011;7902;49.042;9.092;2022-12-24T16:25:56;50.43;;;12.40;;
15603;SDS011;7902;49.042;9.092;2022-12-24T16:28:24;38.93;;;10.63;;
15603;SDS011;7902;49.042;9.092;2022-12-24T16:30:50;52.80;;;11.10;;
15603;SDS011;7902;49.042;9.092;2022-12-24T16:33:20;56.93;;;11.83;;
15603;SDS011;7902;49.042;9.092;2022-12-24T16:35:46;49.50;;;12.17;;
15603;SDS011;7902;49.042;9.092;2022-12-24T16:38:12;60.63;;;16.17;;
15603;SDS011;7902;49.042;9.092;2022-12-24T16:40:39;116.23;;;44.90;;
15603;SDS011;7902;49.042;9.092;2022-12-24T16:43:06;56.97;;;14.50;;
15603;SDS011;7902;49.042;9.092;2022-12-24T16:45:51;51.97;;;12.00;;
15603;SDS011;7902;49.042;9.092;2022-12-24T16:48:20;40.83;;;10.57;;
15603;SDS011;7902;49.042;9.092;2022-12-24T16:50:49;52.40;;;15.70;;
15603;SDS011;7902;49.042;9.092;2022-12-24T16:53:16;43.47;;;9.00;;
15603;SDS011;7902;49.042;9.092;2022-12-24T16:55:44;34.43;;;5.90;;
15603;SDS011;7902;49.042;9.092;2022-12-24T16:58:11;24.93;;;5.43;;
15603;SDS011;7902;49.042;9.092;2022-12-24T17:00:38;35.00;;;5.17;;
15603;SDS011;7902;49.042;9.092;2022-12-24T17:03:05;27.97;;;4.90;;
15603;SDS011;7902;49.042;9.092;2022-12-24T17:05:31;28.23;;;4.90;;
15603;SDS011;7902;49.042;9.092;2022-12-24T17:08:00;38.60;;;4.93;;
15603;SDS011;7902;49.042;9.092;2022-12-24T17:10:26;23.50;;;3.60;;
15603;SDS011;7902;49.042;9.092;2022-12-24T17:12:53;23.73;;;4.37;;
15603;SDS011;7902;49.042;9.092;2022-12-24T17:15:19;29.70;;;5.43;;